createdAt,value
2023-04-08T00:00:27.318Z,5.00
2023-04-08T00:01:27.337Z,5.20
2023-04-08T00:02:27.401Z,5.40
2023-04-08T00:03:27.405Z,5.90
2023-04-08T00:04:27.485Z,5.70
2023-04-08T00:05:27.300Z,6.00
2023-04-08T00:06:27.283Z,5.80
2023-04-08T00:07:27.227Z,6.50
2023-04-08T00:08:27.206Z,8.70
2023-04-08T00:09:27.217Z,12.80
2023-04-08T00:10:27.212Z,11.30
2023-04-08T00:11:27.205Z,8.90
2023-04-08T00:12:27.171Z,8.30
2023-04-08T00:13:27.194Z,8.00
2023-04-08T00:14:27.137Z,7.50
2023-04-08T00:15:27.157Z,7.80
2023-04-08T00:16:27.166Z,7.50
2023-04-08T00:17:27.142Z,6.80
2023-04-08T00:18:27.112Z,6.70
2023-04-08T00:19:27.080Z,7.00
2023-04-08T00:20:27.047Z,7.00
2023-04-08T00:21:27.052Z,12.10
2023-04-08T00:22:27.042Z,9.60
2023-04-08T00:23:27.065Z,8.30
2023-04-08T00:24:27.018Z,8.80
2023-04-08T00:25:27.027Z,7.90
2023-04-08T00:26:26.990Z,8.10
2023-04-08T00:27:26.984Z,8.00
2023-04-08T00:28:26.950Z,7.40
2023-04-08T00:29:26.971Z,8.50
2023-04-08T00:30:26.917Z,8.60
2023-04-08T00:31:27.031Z,8.30
2023-04-08T00:32:26.912Z,7.90
2023-04-08T00:33:26.900Z,7.90
2023-04-08T00:34:26.875Z,7.80
2023-04-08T00:35:26.890Z,8.40
2023-04-08T00:36:26.855Z,8.30
2023-04-08T00:37:26.863Z,8.50
2023-04-08T00:38:26.826Z,9.00
2023-04-08T00:39:26.833Z,9.40
2023-04-08T00:40:26.864Z,9.10
2023-04-08T00:41:26.826Z,9.20
2023-04-08T00:42:26.776Z,9.00
2023-04-08T00:43:26.797Z,9.50
2023-04-08T00:44:26.734Z,9.80
2023-04-08T00:45:26.744Z,10.10
2023-04-08T00:46:26.846Z,9.40
2023-04-08T00:47:26.783Z,10.10
2023-04-08T00:48:26.697Z,9.80
2023-04-08T00:49:26.708Z,10.10
2023-04-08T00:50:26.673Z,9.90
2023-04-08T00:51:26.692Z,10.60
2023-04-08T00:52:26.636Z,10.60
2023-04-08T00:53:26.638Z,10.30
2023-04-08T00:54:26.627Z,10.20
2023-04-08T00:55:26.613Z,9.40
2023-04-08T00:56:26.626Z,10.20
2023-04-08T00:57:26.611Z,10.30
2023-04-08T00:58:26.569Z,10.20
2023-04-08T00:59:26.599Z,9.80
2023-04-08T01:00:26.666Z,9.60
2023-04-08T01:01:26.586Z,10.20
2023-04-08T01:02:26.761Z,10.80
2023-04-08T01:03:26.706Z,11.70
2023-04-08T01:04:26.545Z,11.70
2023-04-08T01:05:26.492Z,13.20
2023-04-08T01:06:26.475Z,13.90
2023-04-08T01:07:26.429Z,25.30
2023-04-08T01:08:26.478Z,12.90
2023-04-08T01:09:26.431Z,10.80
2023-04-08T01:10:26.437Z,10.30
2023-04-08T01:11:26.384Z,10.10
2023-04-08T01:12:26.419Z,10.20
2023-04-08T01:13:26.353Z,10.40
2023-04-08T01:14:26.372Z,10.60
2023-04-08T01:15:26.384Z,11.50
2023-04-08T01:16:26.422Z,10.10
2023-04-08T01:17:26.326Z,11.10
2023-04-08T01:18:26.303Z,10.50
2023-04-08T01:19:26.333Z,10.70
2023-04-08T01:20:26.330Z,10.90
2023-04-08T01:21:26.275Z,10.90
2023-04-08T01:22:26.248Z,11.10
2023-04-08T01:23:26.283Z,11.00
2023-04-08T01:24:26.233Z,10.50
2023-04-08T01:25:26.235Z,10.60
2023-04-08T01:26:26.185Z,10.70
2023-04-08T01:27:26.216Z,11.00
2023-04-08T01:28:26.181Z,11.60
2023-04-08T01:29:26.231Z,11.30
2023-04-08T01:30:26.171Z,11.50
2023-04-08T01:31:26.215Z,11.60
2023-04-08T01:32:26.177Z,12.40
2023-04-08T01:33:26.150Z,13.10
2023-04-08T01:34:26.089Z,17.60
2023-04-08T01:35:26.204Z,12.00
2023-04-08T01:36:26.092Z,12.40
2023-04-08T01:37:26.060Z,15.50
2023-04-08T01:38:26.029Z,12.30
2023-04-08T01:39:26.076Z,12.10
2023-04-08T01:40:26.029Z,12.40
2023-04-08T01:41:26.041Z,12.60
2023-04-08T01:42:25.990Z,12.00
2023-04-08T01:43:26.012Z,12.20
2023-04-08T01:44:25.994Z,12.90
2023-04-08T01:45:25.979Z,12.40
2023-04-08T01:46:25.986Z,13.80
2023-04-08T01:47:25.961Z,14.10
2023-04-08T01:48:25.913Z,13.00
2023-04-08T01:49:25.944Z,15.70
2023-04-08T01:50:25.886Z,13.20
2023-04-08T01:51:25.916Z,13.00
2023-04-08T01:52:25.862Z,12.70
2023-04-08T01:53:25.869Z,12.80
2023-04-08T01:54:25.824Z,13.10
2023-04-08T01:55:25.860Z,13.90
2023-04-08T01:56:25.852Z,13.90
2023-04-08T01:57:25.812Z,14.70
2023-04-08T01:58:25.776Z,13.50
2023-04-08T01:59:25.802Z,14.50
2023-04-08T02:00:25.768Z,14.20
2023-04-08T02:01:25.827Z,14.20
2023-04-08T02:02:25.900Z,14.60
2023-04-08T02:03:25.938Z,14.50
2023-04-08T02:04:25.808Z,14.00
2023-04-08T02:05:25.723Z,14.20
2023-04-08T02:06:25.712Z,14.20
2023-04-08T02:07:25.685Z,15.20
2023-04-08T02:08:25.653Z,14.50
2023-04-08T02:09:25.654Z,15.10
2023-04-08T02:10:25.621Z,15.00
2023-04-08T02:11:25.667Z,15.30
2023-04-08T02:12:25.609Z,14.60
2023-04-08T02:13:25.614Z,15.10
2023-04-08T02:14:25.576Z,14.70
2023-04-08T02:15:25.587Z,14.90
2023-04-08T02:16:25.635Z,14.70
2023-04-08T02:17:25.572Z,15.10
2023-04-08T02:18:25.542Z,15.50
2023-04-08T02:19:25.518Z,14.90
2023-04-08T02:20:25.495Z,15.20
2023-04-08T02:21:25.507Z,14.30
2023-04-08T02:22:25.474Z,14.50
2023-04-08T02:23:25.503Z,14.00
2023-04-08T02:24:25.429Z,13.80
2023-04-08T02:25:25.459Z,14.60
2023-04-08T02:26:25.422Z,13.70
2023-04-08T02:27:25.437Z,13.70
2023-04-08T02:28:25.383Z,14.50
2023-04-08T02:29:25.434Z,13.80
2023-04-08T02:30:25.349Z,12.50
2023-04-08T02:31:25.441Z,13.50
2023-04-08T02:32:25.380Z,13.30
2023-04-08T02:33:25.351Z,13.60
2023-04-08T02:34:25.321Z,13.70
2023-04-08T02:35:25.351Z,13.00
2023-04-08T02:36:25.293Z,13.60
2023-04-08T02:37:25.290Z,14.00
2023-04-08T02:38:25.254Z,12.90
2023-04-08T02:39:25.298Z,14.00
2023-04-08T02:40:25.219Z,13.50
2023-04-08T02:41:25.241Z,14.20
2023-04-08T02:42:25.203Z,13.50
2023-04-08T02:43:25.222Z,14.40
2023-04-08T02:44:25.200Z,14.20
2023-04-08T02:45:25.185Z,13.40
2023-04-08T02:46:25.154Z,13.80
2023-04-08T02:47:25.218Z,14.30
2023-04-08T02:48:25.122Z,14.40
2023-04-08T02:49:25.144Z,14.50
2023-04-08T02:50:25.105Z,13.90
2023-04-08T02:51:25.112Z,14.50
2023-04-08T02:52:25.104Z,14.50
2023-04-08T02:53:25.118Z,14.60
2023-04-08T02:54:25.097Z,14.20
2023-04-08T02:55:25.057Z,13.90
2023-04-08T02:56:25.051Z,14.50
2023-04-08T02:57:25.038Z,14.10
2023-04-08T02:58:25.002Z,14.30
2023-04-08T02:59:25.012Z,13.50
2023-04-08T03:00:24.977Z,13.50
2023-04-08T03:01:25.011Z,14.20
2023-04-08T03:02:25.057Z,14.40
2023-04-08T03:03:25.052Z,14.60
2023-04-08T03:04:24.917Z,14.00
2023-04-08T03:05:24.922Z,13.40
2023-04-08T03:06:24.923Z,14.40
2023-04-08T03:07:24.913Z,14.40
2023-04-08T03:08:24.863Z,14.20
2023-04-08T03:09:24.902Z,14.70
2023-04-08T03:10:24.844Z,14.30
2023-04-08T03:11:24.895Z,13.90
2023-04-08T03:12:24.821Z,15.20
2023-04-08T03:13:24.816Z,14.20
2023-04-08T03:14:24.793Z,14.80
2023-04-08T03:15:24.835Z,15.10
2023-04-08T03:16:24.807Z,14.10
2023-04-08T03:17:24.851Z,14.60
2023-04-08T03:18:24.773Z,14.70
2023-04-08T03:19:24.748Z,14.60
2023-04-08T03:20:24.708Z,14.70
2023-04-08T03:21:24.746Z,14.30
2023-04-08T03:22:24.700Z,14.20
2023-04-08T03:23:24.734Z,15.10
2023-04-08T03:24:24.645Z,14.90
2023-04-08T03:25:24.672Z,14.80
2023-04-08T03:26:24.624Z,14.20
2023-04-08T03:27:24.641Z,14.40
2023-04-08T03:28:24.610Z,14.20
2023-04-08T03:29:24.652Z,15.00
2023-04-08T03:30:24.604Z,15.00
2023-04-08T03:31:24.649Z,14.40
2023-04-08T03:32:24.606Z,15.10
2023-04-08T03:33:24.570Z,15.30
2023-04-08T03:34:24.544Z,14.10
2023-04-08T03:35:24.587Z,13.90
2023-04-08T03:36:24.492Z,15.10
2023-04-08T03:37:24.513Z,15.70
2023-04-08T03:38:24.472Z,15.70
2023-04-08T03:39:24.523Z,15.70
2023-04-08T03:40:24.449Z,15.80
2023-04-08T03:41:24.455Z,16.20
2023-04-08T03:42:24.432Z,14.50
2023-04-08T03:43:24.446Z,15.70
2023-04-08T03:44:24.420Z,15.80
2023-04-08T03:45:24.426Z,15.60
2023-04-08T03:46:24.459Z,15.20
2023-04-08T03:47:24.484Z,15.30
2023-04-08T03:48:24.352Z,15.60
2023-04-08T03:49:24.349Z,16.90
2023-04-08T03:50:24.334Z,16.30
2023-04-08T03:51:24.323Z,16.60
2023-04-08T03:52:24.289Z,16.50
2023-04-08T03:53:24.317Z,16.70
2023-04-08T03:54:24.264Z,16.60
2023-04-08T03:55:24.302Z,16.90
2023-04-08T03:56:24.241Z,16.70
2023-04-08T03:57:24.254Z,16.20
2023-04-08T03:58:24.217Z,17.10
2023-04-08T03:59:24.248Z,16.20
2023-04-08T04:00:24.209Z,16.50
2023-04-08T04:01:24.222Z,15.70
2023-04-08T04:02:24.345Z,15.80
2023-04-08T04:03:24.323Z,17.10
2023-04-08T04:04:24.254Z,16.70
2023-04-08T04:05:24.175Z,16.30
2023-04-08T04:06:24.134Z,16.20
2023-04-08T04:07:24.106Z,16.50
2023-04-08T04:08:24.096Z,17.40
2023-04-08T04:09:24.098Z,17.40
2023-04-08T04:10:24.063Z,16.40
2023-04-08T04:11:24.117Z,16.40
2023-04-08T04:12:24.025Z,16.50
2023-04-08T04:13:24.045Z,16.70
2023-04-08T04:14:24.041Z,16.40
2023-04-08T04:15:24.021Z,16.60
2023-04-08T04:16:24.038Z,16.80
2023-04-08T04:17:24.038Z,16.80
2023-04-08T04:18:23.967Z,16.60
2023-04-08T04:19:23.982Z,16.80
2023-04-08T04:20:23.938Z,17.50
2023-04-08T04:21:23.941Z,16.80
2023-04-08T04:22:23.934Z,17.70
2023-04-08T04:23:23.917Z,17.30
2023-04-08T04:24:23.884Z,18.30
2023-04-08T04:25:23.885Z,17.80
2023-04-08T04:26:23.861Z,17.20
2023-04-08T04:27:23.899Z,18.70
2023-04-08T04:28:23.821Z,18.10
2023-04-08T04:29:23.849Z,18.90
2023-04-08T04:30:23.811Z,18.90
2023-04-08T04:31:23.892Z,18.80
2023-04-08T04:32:23.808Z,18.60
2023-04-08T04:33:23.805Z,18.40
2023-04-08T04:34:23.753Z,19.10
2023-04-08T04:35:23.783Z,18.20
2023-04-08T04:36:23.726Z,17.40
2023-04-08T04:37:23.727Z,17.90
2023-04-08T04:38:23.713Z,19.50
2023-04-08T04:39:23.713Z,18.80
2023-04-08T04:40:23.678Z,19.90
2023-04-08T04:41:23.692Z,20.00
2023-04-08T04:42:23.643Z,18.30
2023-04-08T04:43:23.644Z,20.00
2023-04-08T04:44:23.641Z,18.70
2023-04-08T04:45:23.628Z,19.80
2023-04-08T04:46:23.626Z,18.60
2023-04-08T04:47:23.652Z,19.10
2023-04-08T04:48:23.572Z,19.20
2023-04-08T04:49:23.602Z,18.20
2023-04-08T04:50:23.528Z,18.80
2023-04-08T04:51:23.546Z,18.20
2023-04-08T04:52:23.536Z,19.50
2023-04-08T04:53:23.512Z,19.10
2023-04-08T04:54:23.517Z,18.60
2023-04-08T04:55:23.510Z,19.50
2023-04-08T04:56:23.471Z,18.80
2023-04-08T04:57:23.489Z,18.70
2023-04-08T04:58:23.432Z,20.60
2023-04-08T04:59:23.469Z,19.10
2023-04-08T05:00:23.405Z,20.10
2023-04-08T05:01:23.489Z,18.00
2023-04-08T05:02:23.527Z,18.90
2023-04-08T05:03:23.414Z,18.90
2023-04-08T05:04:23.397Z,18.00
2023-04-08T05:05:23.406Z,20.30
2023-04-08T05:06:23.357Z,19.20
2023-04-08T05:07:23.360Z,19.40
2023-04-08T05:08:23.624Z,19.70
2023-04-08T05:09:23.319Z,19.30
2023-04-08T05:10:23.310Z,19.10
2023-04-08T05:11:23.297Z,20.00
2023-04-08T05:12:23.267Z,20.30
2023-04-08T05:13:23.271Z,20.30
2023-04-08T05:14:23.263Z,20.60
2023-04-08T05:15:23.246Z,20.30
2023-04-08T05:16:23.252Z,20.60
2023-04-08T05:17:23.339Z,21.30
2023-04-08T05:18:23.213Z,21.10
2023-04-08T05:19:23.226Z,21.90
2023-04-08T05:20:23.183Z,24.90
2023-04-08T05:21:23.191Z,24.90
2023-04-08T05:22:23.144Z,25.70
2023-04-08T05:23:23.136Z,24.80
2023-04-08T05:24:23.108Z,26.20
2023-04-08T05:25:23.142Z,24.20
2023-04-08T05:26:23.092Z,23.20
2023-04-08T05:27:23.093Z,24.00
2023-04-08T05:28:23.082Z,23.40
2023-04-08T05:29:23.055Z,23.90
2023-04-08T05:30:23.031Z,28.10
2023-04-08T05:31:23.116Z,25.00
2023-04-08T05:32:23.032Z,24.50
2023-04-08T05:33:23.068Z,24.10
2023-04-08T05:34:23.361Z,23.40
2023-04-08T05:35:23.059Z,23.50
2023-04-08T05:36:22.979Z,24.00
2023-04-08T05:37:22.955Z,23.40
2023-04-08T05:38:22.961Z,23.20
2023-04-08T05:39:22.919Z,23.10
2023-04-08T05:40:22.934Z,23.50
2023-04-08T05:41:22.904Z,22.70
2023-04-08T05:42:22.936Z,20.40
2023-04-08T05:43:22.870Z,21.00
2023-04-08T05:44:22.944Z,21.30
2023-04-08T05:45:22.887Z,20.20
2023-04-08T05:46:22.865Z,19.20
2023-04-08T05:47:22.888Z,25.40
2023-04-08T05:48:22.868Z,43.50
2023-04-08T05:49:22.784Z,31.30
2023-04-08T05:50:22.796Z,30.60
2023-04-08T05:51:22.768Z,24.10
2023-04-08T05:52:22.768Z,22.90
2023-04-08T05:53:22.735Z,23.00
2023-04-08T05:54:22.785Z,22.10
2023-04-08T05:55:22.700Z,22.80
2023-04-08T05:56:22.716Z,21.90
2023-04-08T05:57:22.679Z,22.80
2023-04-08T05:58:22.746Z,21.40
2023-04-08T05:59:22.654Z,21.10
2023-04-08T06:00:22.666Z,22.40
2023-04-08T06:01:22.618Z,22.20
2023-04-08T06:02:22.795Z,21.70
2023-04-08T06:03:22.912Z,21.80
2023-04-08T06:04:22.673Z,22.90
2023-04-08T06:05:22.565Z,21.60
2023-04-08T06:06:22.587Z,20.90
2023-04-08T06:07:22.546Z,21.40
2023-04-08T06:08:22.557Z,21.70
2023-04-08T06:09:22.544Z,21.80
2023-04-08T06:10:22.528Z,21.30
2023-04-08T06:11:22.491Z,22.40
2023-04-08T06:12:22.511Z,22.80
2023-04-08T06:13:22.465Z,21.90
2023-04-08T06:14:22.488Z,21.90
2023-04-08T06:15:22.452Z,21.20
2023-04-08T06:16:22.484Z,22.90
2023-04-08T06:17:22.459Z,22.10
2023-04-08T06:18:22.431Z,22.20
2023-04-08T06:19:22.393Z,21.30
2023-04-08T06:20:22.438Z,22.90
2023-04-08T06:21:22.401Z,21.80
2023-04-08T06:22:22.403Z,22.90
2023-04-08T06:23:22.366Z,22.90
2023-04-08T06:24:22.348Z,22.30
2023-04-08T06:25:22.303Z,21.80
2023-04-08T06:26:22.343Z,20.30
2023-04-08T06:27:22.302Z,20.90
2023-04-08T06:28:22.296Z,20.20
2023-04-08T06:29:22.258Z,20.50
2023-04-08T06:30:22.269Z,21.10
2023-04-08T06:31:22.297Z,20.80
2023-04-08T06:32:22.276Z,20.90
2023-04-08T06:33:22.243Z,20.90
2023-04-08T06:34:22.219Z,21.20
2023-04-08T06:35:22.231Z,20.40
2023-04-08T06:36:22.204Z,20.90
2023-04-08T06:37:22.178Z,20.10
2023-04-08T06:38:22.174Z,20.70
2023-04-08T06:39:22.146Z,20.40
2023-04-08T06:40:22.142Z,21.60
2023-04-08T06:41:22.125Z,19.80
2023-04-08T06:42:23.184Z,19.40
2023-04-08T06:43:22.070Z,20.50
2023-04-08T06:44:22.111Z,19.20
2023-04-08T06:45:22.045Z,19.70
2023-04-08T06:46:22.188Z,19.20
2023-04-08T06:47:22.049Z,19.20
2023-04-08T06:48:22.046Z,18.00
2023-04-08T06:49:21.997Z,17.80
2023-04-08T06:50:22.015Z,18.60
2023-04-08T06:51:21.969Z,18.50
2023-04-08T06:52:21.998Z,18.20
2023-04-08T06:53:22.000Z,18.00
2023-04-08T06:54:21.968Z,17.90
2023-04-08T06:55:21.958Z,18.10
2023-04-08T06:56:21.949Z,18.10
2023-04-08T06:57:21.907Z,17.70
2023-04-08T06:58:21.939Z,18.80
2023-04-08T06:59:21.887Z,17.90
2023-04-08T07:00:21.902Z,17.90
2023-04-08T07:01:21.872Z,17.60
2023-04-08T07:02:21.885Z,18.00
2023-04-08T07:03:21.888Z,16.30
2023-04-08T07:04:21.874Z,16.10
2023-04-08T07:05:21.829Z,16.80
2023-04-08T07:06:21.789Z,17.90
2023-04-08T07:07:21.784Z,16.60
2023-04-08T07:08:21.801Z,16.60
2023-04-08T07:09:21.736Z,16.80
2023-04-08T07:10:21.763Z,15.40
2023-04-08T07:11:21.715Z,14.90
2023-04-08T07:12:21.721Z,14.60
2023-04-08T07:13:21.706Z,13.80
2023-04-08T07:14:21.719Z,13.80
2023-04-08T07:15:21.697Z,14.20
2023-04-08T07:16:21.737Z,14.70
2023-04-08T07:17:21.692Z,15.40
2023-04-08T07:18:21.648Z,14.90
2023-04-08T07:19:21.631Z,14.40
2023-04-08T07:20:21.639Z,13.30
2023-04-08T07:21:21.575Z,13.10
2023-04-08T07:22:21.599Z,13.30
2023-04-08T07:23:21.660Z,12.50
2023-04-08T07:24:21.584Z,12.60
2023-04-08T07:25:21.602Z,13.00
2023-04-08T07:26:21.590Z,11.90
2023-04-08T07:27:21.511Z,10.90
2023-04-08T07:28:21.564Z,12.00
2023-04-08T07:29:21.487Z,11.10
2023-04-08T07:30:21.492Z,11.70
2023-04-08T07:31:21.529Z,12.00
2023-04-08T07:32:21.531Z,12.30
2023-04-08T07:33:21.420Z,11.80
2023-04-08T07:34:21.455Z,12.30
2023-04-08T07:35:21.430Z,12.20
2023-04-08T07:36:21.444Z,12.00
2023-04-08T07:37:21.389Z,12.10
2023-04-08T07:38:21.379Z,13.10
2023-04-08T07:39:21.356Z,10.10
2023-04-08T07:40:21.358Z,10.40
2023-04-08T07:41:21.320Z,10.50
2023-04-08T07:42:21.370Z,10.00
2023-04-08T07:43:21.338Z,10.00
2023-04-08T07:44:21.355Z,10.50
2023-04-08T07:45:21.297Z,10.80
2023-04-08T07:46:21.332Z,10.30
2023-04-08T07:47:21.303Z,10.90
2023-04-08T07:48:21.246Z,9.60
2023-04-08T07:49:21.214Z,9.40
2023-04-08T07:50:21.258Z,9.40
2023-04-08T07:51:21.206Z,9.30
2023-04-08T07:52:21.212Z,9.30
2023-04-08T07:53:23.409Z,9.10
2023-04-08T07:54:21.184Z,9.20
2023-04-08T07:55:21.138Z,9.20
2023-04-08T07:56:21.157Z,8.90
2023-04-08T07:57:21.126Z,9.20
2023-04-08T07:58:21.117Z,9.20
2023-04-08T07:59:21.145Z,9.20
2023-04-08T08:00:21.099Z,9.30
2023-04-08T08:01:21.058Z,9.20
2023-04-08T08:02:21.172Z,8.90
2023-04-08T08:03:21.130Z,9.10
2023-04-08T08:04:21.185Z,9.50
2023-04-08T08:05:21.059Z,9.10
2023-04-08T08:06:21.185Z,9.90
2023-04-08T08:07:20.977Z,9.60
2023-04-08T08:08:21.019Z,10.10
2023-04-08T08:09:20.961Z,8.90
2023-04-08T08:10:20.962Z,9.80
2023-04-08T08:11:20.929Z,9.20
2023-04-08T08:12:21.018Z,9.00
2023-04-08T08:13:20.905Z,8.50
2023-04-08T08:14:20.932Z,9.10
2023-04-08T08:15:20.875Z,8.80
2023-04-08T08:16:20.970Z,9.20
2023-04-08T08:17:20.892Z,8.90
2023-04-08T08:18:20.874Z,9.00
2023-04-08T08:19:20.854Z,9.20
2023-04-08T08:20:20.859Z,8.40
2023-04-08T08:21:20.804Z,8.40
2023-04-08T08:22:20.808Z,9.40
2023-04-08T08:23:20.799Z,9.50
2023-04-08T08:24:20.826Z,9.30
2023-04-08T08:25:20.741Z,9.00
2023-04-08T08:26:20.742Z,8.40
2023-04-08T08:27:20.744Z,9.70
2023-04-08T08:28:20.737Z,9.30
2023-04-08T08:29:20.721Z,9.40
2023-04-08T08:30:20.738Z,9.10
2023-04-08T08:31:20.743Z,8.30
2023-04-08T08:32:20.675Z,8.40
2023-04-08T08:33:20.654Z,8.90
2023-04-08T08:34:20.642Z,8.50
2023-04-08T08:35:20.662Z,8.50
2023-04-08T08:36:20.698Z,8.70
2023-04-08T08:37:20.597Z,8.50
2023-04-08T08:38:20.586Z,8.90
2023-04-08T08:39:20.579Z,8.80
2023-04-08T08:40:20.608Z,8.70
2023-04-08T08:41:20.563Z,8.40
2023-04-08T08:42:20.547Z,9.10
2023-04-08T08:43:20.522Z,8.30
2023-04-08T08:44:20.531Z,8.80
2023-04-08T08:45:20.509Z,8.30
2023-04-08T08:46:20.562Z,9.30
2023-04-08T08:47:20.484Z,9.40
2023-04-08T08:48:20.458Z,8.70
2023-04-08T08:49:20.419Z,9.20
2023-04-08T08:50:20.467Z,9.00
2023-04-08T08:51:20.426Z,8.80
2023-04-08T08:52:20.470Z,9.20
2023-04-08T08:53:20.366Z,8.90
2023-04-08T08:54:20.410Z,8.90
2023-04-08T08:55:35.003Z,9.00
2023-04-08T08:56:20.413Z,10.70
2023-04-08T08:57:20.331Z,10.40
2023-04-08T08:58:20.331Z,9.40
2023-04-08T08:59:20.292Z,9.70
2023-04-08T09:00:20.299Z,9.90
2023-04-08T09:01:20.322Z,9.50
2023-04-08T09:02:20.402Z,9.80
2023-04-08T09:03:20.427Z,9.60
2023-04-08T09:04:20.673Z,9.80
2023-04-08T09:05:20.321Z,9.40
2023-04-08T09:06:20.208Z,9.30
2023-04-08T09:07:20.182Z,10.00
2023-04-08T09:08:20.187Z,10.30
2023-04-08T09:09:20.211Z,9.60
2023-04-08T09:10:20.162Z,10.50
2023-04-08T09:11:20.151Z,10.30
2023-04-08T09:12:20.196Z,10.70
2023-04-08T09:13:20.120Z,10.50
2023-04-08T09:14:20.157Z,9.90
2023-04-08T09:15:20.075Z,10.00
2023-04-08T09:16:20.345Z,10.20
2023-04-08T09:17:20.050Z,10.40
2023-04-08T09:18:20.067Z,10.20
2023-04-08T09:19:20.055Z,10.40
2023-04-08T09:20:20.057Z,10.80
2023-04-08T09:21:19.998Z,10.60
2023-04-08T09:22:20.000Z,10.60
2023-04-08T09:23:19.964Z,11.40
2023-04-08T09:24:19.997Z,10.90
2023-04-08T09:25:19.958Z,10.50
2023-04-08T09:26:19.966Z,10.50
2023-04-08T09:27:19.917Z,11.00
2023-04-08T09:28:19.938Z,10.70
2023-04-08T09:30:19.927Z,10.70
2023-04-08T09:31:19.905Z,11.30
2023-04-08T09:32:19.878Z,10.60
2023-04-08T09:33:19.827Z,10.90
2023-04-08T09:34:19.846Z,11.40
2023-04-08T09:35:19.833Z,10.90
2023-04-08T09:36:19.822Z,9.90
2023-04-08T09:37:19.790Z,10.40
2023-04-08T09:38:19.788Z,10.60
2023-04-08T09:39:19.762Z,9.40
2023-04-08T09:40:19.781Z,10.10
2023-04-08T09:41:19.753Z,9.40
2023-04-08T09:42:19.747Z,9.70
2023-04-08T09:43:19.702Z,9.90
2023-04-08T09:44:19.715Z,9.80
2023-04-08T09:45:19.698Z,9.90
2023-04-08T09:46:19.715Z,9.80
2023-04-08T09:47:19.682Z,8.80
2023-04-08T09:48:19.668Z,9.60
2023-04-08T09:49:19.611Z,9.70
2023-04-08T09:50:19.624Z,9.30
2023-04-08T09:51:19.627Z,9.30
2023-04-08T09:52:19.611Z,9.40
2023-04-08T09:53:20.965Z,8.90
2023-04-08T09:54:19.559Z,9.80
2023-04-08T09:55:19.569Z,10.00
2023-04-08T09:56:19.537Z,10.00
2023-04-08T09:57:19.570Z,10.60
2023-04-08T09:58:19.509Z,9.50
2023-04-08T09:59:19.530Z,10.30
2023-04-08T10:00:19.720Z,10.30
2023-04-08T10:01:19.525Z,9.40
2023-04-08T10:02:19.530Z,9.90
2023-04-08T10:03:19.756Z,9.70
2023-04-08T10:04:19.494Z,9.90
2023-04-08T10:05:19.443Z,9.90
2023-04-08T10:06:19.423Z,9.80
2023-04-08T10:07:19.450Z,9.90
2023-04-08T10:08:19.406Z,9.30
2023-04-08T10:09:19.384Z,9.60
2023-04-08T10:10:19.340Z,9.60
2023-04-08T10:11:19.371Z,9.40
2023-04-08T10:12:19.310Z,9.70
2023-04-08T10:13:19.339Z,9.20
2023-04-08T10:14:19.310Z,9.80
2023-04-08T10:15:19.317Z,9.30
2023-04-08T10:16:19.370Z,10.20
2023-04-08T10:17:19.282Z,9.90
2023-04-08T10:18:19.258Z,9.20
2023-04-08T10:19:19.647Z,9.40
2023-04-08T10:20:19.205Z,9.20
2023-04-08T10:21:19.253Z,9.50
2023-04-08T10:22:19.209Z,10.00
2023-04-08T10:23:19.201Z,9.10
2023-04-08T10:24:19.175Z,8.50
2023-04-08T10:25:19.191Z,9.50
2023-04-08T10:26:19.140Z,9.60
2023-04-08T10:27:19.158Z,9.30
2023-04-08T10:28:19.129Z,9.70
2023-04-08T10:29:19.304Z,10.30
2023-04-08T10:30:19.085Z,10.00
2023-04-08T10:31:19.135Z,9.50
2023-04-08T10:32:19.106Z,10.10
2023-04-08T10:33:19.092Z,9.10
2023-04-08T10:34:19.050Z,9.30
2023-04-08T10:35:19.133Z,9.00
2023-04-08T10:36:19.017Z,9.00
2023-04-08T10:37:19.002Z,9.40
2023-04-08T10:38:18.970Z,9.50
2023-04-08T10:39:19.031Z,9.50
2023-04-08T10:40:18.954Z,9.20
2023-04-08T10:41:18.984Z,10.40
2023-04-08T10:42:18.936Z,10.70
2023-04-08T10:43:18.934Z,11.00
2023-04-08T10:44:18.906Z,11.10
2023-04-08T10:45:18.930Z,9.90
2023-04-08T10:46:18.946Z,9.60
2023-04-08T10:47:18.925Z,10.50
2023-04-08T10:48:18.916Z,10.50
2023-04-08T10:49:18.847Z,9.90
2023-04-08T10:50:18.797Z,10.60
2023-04-08T10:51:18.818Z,10.40
2023-04-08T10:52:18.782Z,10.20
2023-04-08T10:53:18.808Z,10.80
2023-04-08T10:54:18.815Z,10.80
2023-04-08T10:55:18.794Z,10.50
2023-04-08T10:56:18.751Z,10.90
2023-04-08T10:57:18.765Z,10.20
2023-04-08T10:58:18.769Z,10.50
2023-04-08T10:59:18.743Z,10.00
2023-04-08T11:00:18.690Z,10.20
2023-04-08T11:01:18.729Z,9.70
2023-04-08T11:02:18.801Z,9.40
2023-04-08T11:03:18.796Z,10.10
2023-04-08T11:04:18.821Z,10.00
2023-04-08T11:05:18.652Z,10.10
2023-04-08T11:06:18.610Z,10.00
2023-04-08T11:07:18.647Z,9.50
2023-04-08T11:08:20.613Z,9.40
2023-04-08T11:09:18.637Z,9.60
2023-04-08T11:10:18.570Z,10.10
2023-04-08T11:11:18.560Z,9.80
2023-04-08T11:12:18.518Z,9.70
2023-04-08T11:13:18.563Z,9.70
2023-04-08T11:14:18.508Z,9.90
2023-04-08T11:15:18.504Z,9.80
2023-04-08T11:16:18.831Z,9.70
2023-04-08T11:17:18.542Z,9.90
2023-04-08T11:18:18.456Z,10.00
2023-04-08T11:19:18.462Z,10.10
2023-04-08T11:20:18.443Z,9.30
2023-04-08T11:21:18.486Z,9.60
2023-04-08T11:22:18.402Z,10.00
2023-04-08T11:23:18.438Z,10.50
2023-04-08T11:24:18.406Z,10.50
2023-04-08T11:25:18.394Z,10.30
2023-04-08T11:26:18.358Z,10.70
2023-04-08T11:27:18.364Z,9.60
2023-04-08T11:28:18.320Z,10.80
2023-04-08T11:29:18.387Z,11.10
2023-04-08T11:30:18.285Z,10.50
2023-04-08T11:31:18.345Z,10.00
2023-04-08T11:32:18.291Z,10.00
2023-04-08T11:33:18.287Z,9.80
2023-04-08T11:34:18.247Z,9.90
2023-04-08T11:35:18.247Z,9.60
2023-04-08T11:36:18.236Z,10.20
2023-04-08T11:37:18.265Z,10.10
2023-04-08T11:38:18.177Z,9.90
2023-04-08T11:39:18.190Z,10.00
2023-04-08T11:40:18.223Z,10.30
2023-04-08T11:41:18.212Z,9.90
2023-04-08T11:42:18.124Z,10.20
2023-04-08T11:43:18.143Z,10.50
2023-04-08T11:44:18.100Z,10.40
2023-04-08T11:45:18.134Z,10.10
2023-04-08T11:46:18.099Z,10.60
2023-04-08T11:47:18.136Z,10.50
2023-04-08T11:48:18.059Z,10.30
2023-04-08T11:49:18.061Z,10.70
2023-04-08T11:50:18.033Z,10.20
2023-04-08T11:51:18.040Z,10.50
2023-04-08T11:52:18.014Z,10.40
2023-04-08T11:53:18.007Z,10.30
2023-04-08T11:54:17.960Z,10.70
2023-04-08T11:55:17.974Z,10.20
2023-04-08T11:56:17.956Z,10.30
2023-04-08T11:57:17.981Z,10.90
2023-04-08T11:58:17.931Z,11.00
2023-04-08T11:59:17.937Z,10.60
2023-04-08T12:00:17.894Z,10.80
2023-04-08T12:01:17.912Z,9.90
2023-04-08T12:02:18.025Z,10.20
2023-04-08T12:03:18.008Z,9.90
2023-04-08T12:04:17.909Z,10.60
2023-04-08T12:05:17.862Z,10.40
2023-04-08T12:06:17.815Z,10.60
2023-04-08T12:07:17.835Z,9.90
2023-04-08T12:08:17.826Z,10.10
2023-04-08T12:09:17.794Z,10.10
2023-04-08T12:10:17.751Z,10.70
2023-04-08T12:11:19.884Z,10.40
2023-04-08T12:12:17.770Z,10.60
2023-04-08T12:13:17.757Z,10.80
2023-04-08T12:14:17.716Z,10.40
2023-04-08T12:15:17.725Z,11.20
2023-04-08T12:16:17.709Z,10.90
2023-04-08T12:17:17.693Z,11.40
2023-04-08T12:18:17.688Z,10.80
2023-04-08T12:19:17.702Z,11.20
2023-04-08T12:20:17.630Z,11.30
2023-04-08T12:21:17.635Z,10.90
2023-04-08T12:22:17.599Z,10.60
2023-04-08T12:23:17.618Z,11.20
2023-04-08T12:24:17.605Z,10.40
2023-04-08T12:25:17.607Z,10.60
2023-04-08T12:26:17.563Z,10.30
2023-04-08T12:27:17.572Z,11.40
2023-04-08T12:28:17.529Z,10.60
2023-04-08T12:29:17.523Z,10.30
2023-04-08T12:30:17.528Z,10.00
2023-04-08T12:31:17.542Z,10.90
2023-04-08T12:32:17.489Z,10.20
2023-04-08T12:33:17.490Z,9.90
2023-04-08T12:34:17.461Z,10.70
2023-04-08T12:35:17.471Z,10.20
2023-04-08T12:36:17.445Z,10.70
2023-04-08T12:37:17.431Z,10.20
2023-04-08T12:38:17.411Z,10.60
2023-04-08T12:39:17.421Z,9.80
2023-04-08T12:40:17.394Z,10.40
2023-04-08T12:41:17.388Z,10.30
2023-04-08T12:42:17.350Z,10.20
2023-04-08T12:43:17.368Z,11.20
2023-04-08T12:44:17.324Z,11.00
2023-04-08T12:45:17.316Z,10.50
2023-04-08T12:46:17.363Z,10.50
2023-04-08T12:47:17.359Z,10.80
2023-04-08T12:48:17.283Z,10.20
2023-04-08T12:49:17.274Z,11.30
2023-04-08T12:50:17.251Z,10.90
2023-04-08T12:51:17.248Z,10.70
2023-04-08T12:52:17.223Z,11.10
2023-04-08T12:53:17.221Z,10.40
2023-04-08T12:54:17.195Z,10.20
2023-04-08T12:55:17.211Z,10.80
2023-04-08T12:56:17.167Z,9.70
2023-04-08T12:57:17.192Z,10.50
2023-04-08T12:58:17.129Z,10.30
2023-04-08T12:59:17.136Z,10.00
2023-04-08T13:00:17.118Z,10.20